Latest Weather Observations for Bedout Island

IDW60801

Issued at 9:05 pm WST Saturday 26 July 2014 (issued every 30 minutes, with the page automatically refreshed every 10 minutes)

About weather observations | Map of weather stations | Latest weather observations for WA | Other Formats
Station Details ID: 004100 Name: BEDOUT ISLAND Lat: -19.59 Lon: 119.10 Height: 8.6 m
Data from the previous 72 hours. | See also: Recent months for locations in Western Australia
Date/Time
WST
Temp
°C
App
Temp
°C
Dew
Point
Rel
Hum
%
Delta-T
°C
Wind Press
QNH
hPa
Press
MSL
hPa
Rain
since 9 am
mm
Dir
 
Spd
km/h
Gust
km/h
Spd
kts
Gust
kts
26/09:00pm 20.9 20.1 15.2 70 3.4 E 13 15 7 8 1019.8 1019.7 -
26/08:30pm 20.9 20.0 14.8 68 3.6 E 13 15 7 8 1019.7 - -
26/08:00pm 20.6 20.2 15.2 71 3.2 E 11 13 6 7 1019.5 - -
26/07:30pm 20.3 19.6 15.5 74 2.8 E 13 15 7 8 1019.3 - -
26/07:00pm 20.3 19.6 15.3 73 3.0 E 13 15 7 8 1018.9 - -
26/06:30pm 20.4 19.3 15.4 73 3.0 ESE 15 17 8 9 1018.6 - -
26/06:00pm 20.8 19.3 15.4 71 3.2 E 17 17 9 9 1018.6 1018.5 -
26/05:30pm 21.1 19.6 15.2 69 3.5 E 17 19 9 10 1018.6 - -
26/05:00pm 21.9 20.4 15.3 66 3.9 E 17 17 9 9 1018.5 - -
26/04:30pm 22.5 21.3 15.1 63 4.4 E 15 19 8 10 1018.6 - -
26/04:00pm 22.9 21.2 14.7 60 4.9 E 17 20 9 11 1018.6 - -
26/03:30pm 23.0 20.8 14.3 58 5.1 E 19 20 10 11 1018.5 - -
26/03:00pm 23.3 20.9 14.3 57 5.3 E 20 22 11 12 1018.5 1018.4 -
26/02:30pm 23.9 21.5 14.3 55 5.7 E 20 24 11 13 1018.5 - -
26/02:00pm 24.3 21.9 14.4 54 5.9 E 20 24 11 13 1018.7 - -
26/01:30pm 24.1 20.7 13.6 52 6.1 E 24 28 13 15 1018.9 - -
26/01:00pm 23.6 19.6 12.9 51 6.2 E 26 28 14 15 1019.4 - -
26/12:30pm 23.7 19.7 13.0 51 6.2 E 26 30 14 16 1019.8 - -
26/12:00pm 23.3 19.0 13.2 53 5.8 E 28 33 15 18 1020.3 1020.2 -
26/11:30am 23.2 18.5 13.1 53 5.8 E 30 32 16 17 1020.7 - -
26/11:00am 23.2 18.5 13.1 53 5.8 E 30 35 16 19 1021.0 - -
26/10:30am 23.0 17.6 12.3 51 6.1 E 32 39 17 21 1021.3 - -
26/10:00am 22.9 16.9 12.2 51 6.1 E 35 39 19 21 1021.5 - -
26/09:30am 22.4 16.8 12.1 52 5.8 E 33 39 18 21 1021.3 - -
26/09:00am 22.0 15.9 11.7 52 5.7 E 35 41 19 22 1021.1 1021.0 -
26/08:30am 21.5 15.4 11.8 54 5.4 E 35 41 19 22 1020.9 - -
26/08:00am 20.8 14.2 11.2 54 5.3 E 37 43 20 23 1020.5 - -
26/07:30am 20.3 14.2 11.8 58 4.7 E 35 41 19 22 1020.2 - -
26/07:00am 19.8 12.5 10.2 54 5.2 E 39 44 21 24 1019.7 - -
26/06:30am 19.3 12.1 10.6 57 4.7 E 39 44 21 24 1019.4 - -
26/06:00am 19.4 12.1 10.1 55 5.0 ESE 39 44 21 24 1019.0 1018.9 -
26/05:30am 19.5 11.9 10.5 56 4.9 ESE 41 48 22 26 1018.7 - -
26/05:00am 19.7 12.5 10.7 56 4.9 ESE 39 46 21 25 1018.5 - -
26/04:30am 19.4 12.8 11.2 59 4.5 ESE 37 43 20 23 1018.6 - -
26/04:00am 19.8 12.8 11.3 58 4.7 ESE 39 46 21 25 1018.5 - -
26/03:30am 19.7 12.2 10.9 57 4.8 ESE 41 44 22 24 1018.6 - -
26/03:00am 19.8 13.2 11.3 58 4.7 ESE 37 41 20 22 1018.5 1018.4 -
26/02:30am 19.8 13.1 11.0 57 4.8 ESE 37 44 20 24 1018.5 - -
26/02:00am 19.9 13.8 11.7 59 4.5 ESE 35 41 19 22 1018.6 - -
26/01:30am 20.2 13.1 9.7 51 5.6 ESE 37 43 20 23 1018.5 - -
26/01:00am 19.7 14.2 11.7 60 4.4 SE 32 37 17 20 1018.7 - -
26/12:30am 19.4 14.6 10.4 56 4.8 SSE 26 32 14 17 1018.9 - -
26/12:00am 19.3 15.3 11.8 62 4.1 SE 24 28 13 15 1019.0 1018.9 -
 
Date/Time
WST
Temp
°C
App
Temp
°C
Dew
Point
Rel
Hum
%
Delta-T
°C
Wind Press
QNH
hPa
Press
MSL
hPa
Rain
since 9 am
mm
Dir
 
Spd
km/h
Gust
km/h
Spd
kts
Gust
kts
25/11:30pm 19.1 16.2 12.8 67 3.5 SSE 20 24 11 13 1019.3 - -
25/11:00pm 18.8 15.9 13.0 69 3.3 S 20 24 11 13 1019.6 - -
25/10:30pm 18.9 16.5 12.6 67 3.5 SSE 17 20 9 11 1019.7 - -
25/10:00pm 18.8 16.3 12.3 66 3.6 SSE 17 20 9 11 1019.6 - -
25/09:30pm 19.2 17.3 11.7 62 4.1 SSE 13 17 7 9 1019.6 - -
25/09:00pm 19.0 16.9 11.1 60 4.3 SE 13 15 7 8 1019.5 1019.4 -
25/08:30pm 18.9 17.5 11.0 60 4.3 ESE 9 11 5 6 1019.5 - -
25/08:00pm 19.5 17.6 10.5 56 4.9 ESE 11 13 6 7 1019.2 - -
25/07:30pm 19.6 17.6 10.3 55 5.0 E 11 15 6 8 1019.0 - -
25/07:00pm 19.7 17.3 9.9 53 5.2 E 13 15 7 8 1018.6 - -
25/06:30pm 19.5 17.1 10.0 54 5.1 E 13 15 7 8 1018.4 - -
25/06:00pm 19.7 16.9 9.9 53 5.2 ESE 15 17 8 9 1018.4 1018.3 -
25/05:30pm 20.2 16.9 9.7 51 5.6 ESE 17 20 9 11 1018.4 - -
25/05:00pm 21.1 17.4 9.4 47 6.2 E 19 20 10 11 1018.3 - -
25/04:30pm 21.7 17.5 7.5 40 7.3 E 19 22 10 12 1018.3 - -
25/04:00pm 22.0 17.4 8.2 41 7.2 ESE 22 26 12 14 1018.4 - -
25/03:30pm 22.3 17.4 8.4 41 7.3 ESE 24 30 13 16 1018.3 - -
25/03:00pm 22.5 17.1 7.9 39 7.6 ESE 26 32 14 17 1018.4 1018.3 -
25/02:30pm 22.7 17.2 10.5 46 6.7 ESE 30 35 16 19 1018.4 - -
25/02:00pm 22.5 15.9 8.6 41 7.4 ESE 33 39 18 21 1018.5 - -
25/01:30pm 22.5 16.2 9.6 44 7.0 ESE 33 41 18 22 1018.8 - -
25/01:00pm 21.9 15.1 9.1 44 6.8 ESE 35 41 19 22 1019.2 - -
25/12:30pm 22.2 15.9 11.0 49 6.2 E 35 41 19 22 1019.7 - -
25/12:00pm 21.7 14.3 9.9 47 6.4 E 39 46 21 25 1019.9 1019.8 -
25/11:30am 21.2 13.9 10.1 49 6.0 E 39 46 21 25 1020.1 - -
25/11:00am 20.9 12.6 9.5 48 6.1 E 43 50 23 27 1020.4 - -
25/10:30am 20.3 11.1 9.5 50 5.8 E 48 54 26 29 1020.5 - -
25/10:00am 20.1 11.1 10.2 53 5.3 ESE 48 57 26 31 1020.5 - -
25/09:30am 19.5 10.9 10.2 55 5.0 ESE 46 56 25 30 1020.7 - -
25/09:00am 19.5 10.5 11.5 60 4.4 ESE 50 57 27 31 1020.5 1020.4 -
25/08:30am 19.2 10.1 11.3 60 4.3 ESE 50 59 27 32 1020.2 - -
25/08:00am 18.7 9.0 10.3 58 4.5 ESE 52 59 28 32 1020.0 - -
25/07:30am 18.4 8.7 9.2 55 4.8 ESE 50 57 27 31 1019.7 - -
25/07:00am 18.0 8.6 8.8 55 4.8 ESE 48 57 26 31 1019.3 - -
25/06:30am 17.7 8.7 8.8 56 4.6 SE 46 54 25 29 1019.2 - -
25/06:00am 18.3 9.7 8.8 54 4.9 ESE 44 57 24 31 1018.9 1018.8 -
25/05:30am 18.3 10.0 9.4 56 4.7 ESE 43 50 23 27 1018.5 - -
25/05:00am 18.4 9.7 8.4 52 5.2 ESE 44 50 24 27 1018.2 - -
25/04:30am 18.4 10.2 8.4 52 5.2 ESE 41 48 22 26 1018.1 - -
25/04:00am 18.5 10.3 8.2 51 5.3 ESE 41 48 22 26 1017.9 - -
25/03:30am 19.0 10.4 8.1 49 5.6 ESE 43 48 23 26 1017.8 - -
25/03:00am 19.1 11.2 9.3 53 5.2 ESE 41 46 22 25 1018.0 1017.9 -
25/02:30am 19.2 10.9 7.9 48 5.8 ESE 41 48 22 26 1017.9 - -
25/02:00am 19.5 11.4 8.5 49 5.7 ESE 41 48 22 26 1018.0 - -
25/01:30am 19.9 12.5 9.8 52 5.4 ESE 39 46 21 25 1018.1 - -
25/01:00am 20.1 11.1 6.4 41 6.9 SE 43 50 23 27 1018.0 - -
25/12:30am 20.3 11.3 7.3 43 6.6 SE 44 50 24 27 1018.2 - -
 
Date/Time
WST
Temp
°C
App
Temp
°C
Dew
Point
Rel
Hum
%
Delta-T
°C
Wind Press
QNH
hPa
Press
MSL
hPa
Rain
since 9 am
mm
Dir
 
Spd
km/h
Gust
km/h
Spd
kts
Gust
kts
24/09:30pm 20.2 14.4 11.4 57 4.9 SE 33 39 18 21 1018.6 - -
24/09:00pm 20.5 14.4 10.3 52 5.5 SE 33 41 18 22 1018.4 1018.3 -
24/08:30pm 20.6 15.0 11.5 56 5.0 SE 32 35 17 19 1018.1 - -
24/08:00pm 20.8 16.8 11.7 56 5.1 SE 24 30 13 16 1017.9 - -
24/07:30pm 20.5 17.3 13.0 62 4.3 SSE 22 28 12 15 1017.5 - -
24/07:00pm 20.4 17.4 10.8 54 5.2 ESE 17 20 9 11 1017.0 - -
24/06:30pm 20.5 16.6 8.8 47 6.2 SE 19 20 10 11 1016.5 - -
24/06:00pm 20.5 17.2 9.4 49 5.9 ESE 17 22 9 12 1016.4 1016.3 -
24/05:30pm 20.8 17.7 10.3 51 5.7 E 17 20 9 11 1016.4 - -
24/05:00pm 21.5 17.7 9.1 45 6.6 ESE 19 20 10 11 1016.5 - -
24/04:30pm 22.2 18.4 9.0 43 7.0 ESE 19 20 10 11 1016.6 - -
24/04:00pm 22.5 17.6 7.1 37 7.9 ESE 22 26 12 14 1016.3 - -
24/03:30pm 22.7 17.5 7.3 37 8.0 ESE 24 28 13 15 1016.4 - -
24/03:00pm 22.7 16.6 6.5 35 8.3 ESE 28 32 15 17 1016.5 1016.4 -
24/02:30pm 23.1 16.9 8.0 38 8.0 ESE 30 35 16 19 1016.6 - -
24/02:00pm 23.1 16.7 8.4 39 7.8 SE 32 37 17 20 1017.0 - -
24/01:30pm 22.9 15.8 6.6 35 8.4 SE 33 41 18 22 1017.5 - -
24/01:00pm 23.0 16.3 8.3 39 7.8 SE 33 41 18 22 1017.9 - -
24/12:30pm 22.4 14.8 7.4 38 7.8 ESE 37 43 20 23 1018.1 - -
24/12:00pm 21.8 14.2 7.6 40 7.3 SE 37 46 20 25 1018.7 1018.6 -
24/11:30am 21.7 14.1 8.9 44 6.8 SE 39 46 21 25 1018.9 - -
24/11:00am 21.0 11.9 8.3 44 6.6 ESE 46 56 25 30 1019.2 - -
24/10:30am 21.2 12.7 8.5 44 6.7 ESE 43 50 23 27 1019.5 - -
24/10:00am 21.4 14.0 11.1 52 5.7 ESE 41 48 22 26 1019.9 - -
24/09:30am 20.9 12.3 8.2 44 6.6 SE 43 48 23 26 1020.0 - -
24/09:00am 20.9 13.5 9.8 49 5.9 SE 39 44 21 24 1019.8 1019.7 -
24/08:30am 20.5 11.7 9.7 50 5.8 SE 46 54 25 29 1019.4 - -
24/08:00am 20.2 11.7 10.6 54 5.2 SE 46 54 25 29 1018.7 - -
24/07:30am 20.3 13.1 11.8 58 4.7 SE 41 46 22 25 1018.2 - -
24/07:00am 19.7 13.8 12.5 63 4.0 SE 35 43 19 23 1017.9 - -
24/06:30am 19.3 12.8 11.8 62 4.1 SE 37 41 20 22 1017.5 - -
24/06:00am 19.2 13.2 12.2 64 3.9 SE 35 39 19 21 1017.3 1017.2 -
24/05:30am 19.4 13.3 12.9 66 3.7 SE 37 43 20 23 1017.1 - -
24/05:00am 19.1 12.6 11.7 62 4.1 SE 37 43 20 23 1016.9 - -
24/04:30am 19.2 11.9 11.7 62 4.1 SE 41 46 22 25 1016.7 - -
24/04:00am 19.0 11.1 11.3 61 4.2 SE 44 48 24 26 1016.7 - -
24/03:30am 19.1 11.1 10.6 58 4.6 SE 43 52 23 28 1016.6 - -
24/03:00am 19.0 11.6 11.3 61 4.2 SE 41 46 22 25 1016.7 1016.6 -
24/02:30am 19.1 12.2 12.8 67 3.5 SE 41 48 22 26 1016.7 - -
24/02:00am 19.1 12.8 12.4 65 3.7 SSE 37 43 20 23 1016.8 - -
24/01:30am 19.0 13.1 12.3 65 3.7 SSE 35 43 19 23 1016.7 - -
24/01:00am 19.2 14.7 12.5 65 3.7 S 28 33 15 18 1016.9 - -
24/12:30am 19.3 15.6 12.6 65 3.8 S 24 28 13 15 1016.9 - -
24/12:00am 19.9 17.0 14.0 69 3.4 S 22 24 12 13 1016.9 1016.8 -
 
Date/Time
WST
Temp
°C
App
Temp
°C
Dew
Point
Rel
Hum
%
Delta-T
°C
Wind Press
QNH
hPa
Press
MSL
hPa
Rain
since 9 am
mm
Dir
 
Spd
km/h
Gust
km/h
Spd
kts
Gust
kts
23/11:30pm 19.9 17.7 14.5 71 3.1 SSW 19 20 10 11 1017.0 - -
23/11:00pm 20.3 17.9 15.5 74 2.8 SSW 22 24 12 13 1017.1 - -
23/10:30pm 20.6 18.5 15.2 71 3.2 SSW 20 22 11 12 1017.0 - -
23/10:00pm 20.4 17.9 13.6 65 3.9 SSW 19 22 10 12 1017.1 - -
23/09:30pm 20.3 19.0 14.7 70 3.3 SSW 15 15 8 8 1017.1 - -

Other Formats:

Comma delimited format used in spreadsheet applications
http://www.bom.gov.au/fwo/IDW60801/IDW60801.94310.axf

JavaScript Object Notation format (JSON) in row-major order
http://www.bom.gov.au/fwo/IDW60801/IDW60801.94310.json